createdAt,value
2018-06-11T00:02:39.852Z,10.60
2018-06-11T00:05:44.390Z,11.30
2018-06-11T00:08:48.696Z,15.07
2018-06-11T00:11:58.878Z,13.97
2018-06-11T00:15:03.651Z,12.77
2018-06-11T00:18:08.019Z,10.20
2018-06-11T00:21:12.391Z,11.63
2018-06-11T00:24:16.735Z,11.47
2018-06-11T00:27:31.871Z,12.27
2018-06-11T00:30:37.024Z,11.13
2018-06-11T00:33:42.526Z,10.97
2018-06-11T00:36:47.071Z,10.90
2018-06-11T00:39:53.787Z,10.97
2018-06-11T00:42:59.052Z,12.70
2018-06-11T00:46:07.700Z,11.13
2018-06-11T00:49:12.047Z,11.37
2018-06-11T00:52:16.374Z,14.23
2018-06-11T00:55:23.094Z,14.77
2018-06-11T00:58:33.694Z,15.50
2018-06-11T01:01:40.751Z,14.63
2018-06-11T01:04:45.102Z,14.27
2018-06-11T01:07:51.161Z,14.97
2018-06-11T01:10:56.403Z,15.03
2018-06-11T01:14:07.294Z,13.57
2018-06-11T01:17:12.573Z,14.87
2018-06-11T01:20:16.868Z,13.73
2018-06-11T01:23:24.066Z,13.37
2018-06-11T01:26:32.563Z,13.73
2018-06-11T01:29:38.278Z,12.77
2018-06-11T01:32:47.034Z,14.07
2018-06-11T01:35:52.365Z,15.43
2018-06-11T01:39:01.411Z,17.03
2018-06-11T01:42:10.705Z,14.27
2018-06-11T01:45:17.694Z,11.87
2018-06-11T01:48:23.363Z,13.77
2018-06-11T01:51:28.785Z,13.97
2018-06-11T01:54:34.056Z,14.57
2018-06-11T01:57:38.742Z,11.63
2018-06-11T02:00:44.742Z,11.10
2018-06-11T02:03:50.445Z,12.63
2018-06-11T02:06:57.151Z,11.77
2018-06-11T02:10:02.700Z,12.50
2018-06-11T02:13:07.167Z,12.50
2018-06-11T02:16:11.447Z,11.50
2018-06-11T02:19:15.798Z,11.80
2018-06-11T02:22:20.547Z,12.47
2018-06-11T02:25:26.947Z,12.53
2018-06-11T02:28:36.238Z,14.03
2018-06-11T02:31:41.033Z,11.53
2018-06-11T02:34:45.332Z,13.43
2018-06-11T02:37:49.718Z,12.87
2018-06-11T02:40:56.201Z,13.00
2018-06-11T02:44:00.571Z,20.33
2018-06-11T02:47:07.119Z,17.73
2018-06-11T02:50:12.106Z,21.53
2018-06-11T02:53:17.117Z,19.87
2018-06-11T02:56:22.084Z,22.77
2018-06-11T03:02:36.857Z,22.13
2018-06-11T03:05:42.050Z,25.63
2018-06-11T03:08:46.492Z,19.93
2018-06-11T03:11:51.470Z,24.10
2018-06-11T03:14:56.218Z,21.60
2018-06-11T03:18:02.618Z,23.37
2018-06-11T03:21:06.940Z,25.37
2018-06-11T03:24:11.296Z,22.60
2018-06-11T03:27:15.772Z,21.33
2018-06-11T03:30:20.480Z,22.13
2018-06-11T03:33:27.659Z,20.17
2018-06-11T03:36:36.125Z,22.60
2018-06-11T03:39:40.930Z,23.20
2018-06-11T03:42:45.330Z,20.87
2018-06-11T03:45:52.669Z,23.20
2018-06-11T03:48:57.784Z,23.10
2018-06-11T03:52:04.108Z,21.87
2018-06-11T03:55:09.117Z,21.07
2018-06-11T03:58:13.651Z,25.93
2018-06-11T04:01:18.158Z,23.57
2018-06-11T04:04:23.347Z,20.53
2018-06-11T04:07:27.907Z,27.23
2018-06-11T04:10:32.405Z,24.37
2018-06-11T04:13:36.768Z,22.50
2018-06-11T04:16:41.095Z,26.00
2018-06-11T04:19:45.447Z,23.43
2018-06-11T04:22:51.181Z,23.17
2018-06-11T04:26:04.432Z,22.77
2018-06-11T04:29:08.751Z,21.77
2018-06-11T04:32:13.393Z,28.83
2018-06-11T04:35:17.630Z,22.07
2018-06-11T04:38:22.720Z,23.07
2018-06-11T04:41:27.456Z,23.70
2018-06-11T04:44:38.654Z,23.87
2018-06-11T04:47:43.169Z,24.33
2018-06-11T04:50:47.532Z,22.77
2018-06-11T04:53:53.393Z,28.23
2018-06-11T04:57:00.407Z,23.47
2018-06-11T05:00:11.244Z,19.07
2018-06-11T05:03:15.459Z,22.00
2018-06-11T05:06:20.709Z,29.90
2018-06-11T05:09:27.120Z,21.73
2018-06-11T05:12:47.186Z,20.77
2018-06-11T05:15:54.475Z,21.00
2018-06-11T05:19:05.227Z,20.97
2018-06-11T05:22:09.623Z,20.17
2018-06-11T05:25:13.984Z,19.30
2018-06-11T05:28:18.304Z,20.87
2018-06-11T05:31:36.480Z,19.70
2018-06-11T05:34:40.992Z,20.47
2018-06-11T05:37:45.379Z,23.57
2018-06-11T05:40:50.276Z,19.30
2018-06-11T05:43:56.184Z,20.30
2018-06-11T05:47:15.511Z,19.70
2018-06-11T05:50:20.252Z,19.13
2018-06-11T05:53:27.703Z,18.43
2018-06-11T05:56:41.145Z,17.43
2018-06-11T05:59:45.549Z,21.70
2018-06-11T06:02:49.930Z,20.40
2018-06-11T06:09:14.454Z,19.27
2018-06-11T06:12:19.006Z,21.33
2018-06-11T06:15:25.992Z,21.37
2018-06-11T06:18:32.179Z,18.30
2018-06-11T06:21:36.490Z,16.87
2018-06-11T06:24:40.873Z,19.17
2018-06-11T06:27:45.396Z,24.33
2018-06-11T06:30:52.123Z,20.17
2018-06-11T06:33:57.771Z,18.27
2018-06-11T06:37:04.510Z,16.73
2018-06-11T06:40:09.690Z,15.83
2018-06-11T06:43:14.061Z,17.70
2018-06-11T06:46:18.679Z,15.93
2018-06-11T06:49:25.260Z,15.07
2018-06-11T06:55:44.735Z,14.17
2018-06-11T06:58:49.547Z,15.63
2018-06-11T07:02:09.019Z,16.93
2018-06-11T07:05:13.439Z,15.00
2018-06-11T07:08:17.785Z,13.37
2018-06-11T07:11:25.453Z,15.40
2018-06-11T07:14:34.042Z,13.60
2018-06-11T07:17:38.598Z,16.13
2018-06-11T07:20:43.223Z,12.07
2018-06-11T07:23:47.606Z,13.97
2018-06-11T07:26:52.641Z,13.57
2018-06-11T07:30:11.800Z,16.53
2018-06-11T07:33:16.108Z,14.87
2018-06-11T07:36:20.816Z,14.93
2018-06-11T07:39:27.875Z,14.60
2018-06-11T07:42:32.758Z,15.93
2018-06-11T07:45:37.947Z,15.97
2018-06-11T07:48:43.160Z,15.80
2018-06-11T07:51:50.632Z,14.53
2018-06-11T07:54:58.593Z,14.90
2018-06-11T07:58:05.987Z,17.77
2018-06-11T08:01:18.666Z,14.63
2018-06-11T08:04:24.378Z,13.60
2018-06-11T08:07:44.289Z,10.83
2018-06-11T08:10:51.173Z,15.30
2018-06-11T08:14:15.886Z,13.83
2018-06-11T08:17:28.506Z,11.97
2018-06-11T08:20:49.914Z,14.00
2018-06-11T08:27:18.013Z,16.73
2018-06-11T08:30:26.337Z,15.67
2018-06-11T08:37:18.813Z,17.17
2018-06-11T08:40:24.642Z,12.47
2018-06-11T08:43:57.687Z,14.83
2018-06-11T08:47:06.270Z,16.63
2018-06-11T08:50:20.328Z,12.73
2018-06-11T08:53:28.752Z,18.33
2018-06-11T08:56:34.727Z,18.63
2018-06-11T08:59:40.299Z,15.73
2018-06-11T09:02:45.612Z,18.60
2018-06-11T09:05:58.245Z,16.37
2018-06-11T09:09:23.897Z,19.73
2018-06-11T09:12:30.150Z,18.63
2018-06-11T09:15:48.079Z,18.93
2018-06-11T09:18:56.053Z,15.20
2018-06-11T09:22:21.525Z,18.37
2018-06-11T09:25:48.976Z,16.80
2018-06-11T09:28:55.721Z,17.90
2018-06-11T09:36:18.047Z,15.93
2018-06-11T09:39:27.570Z,17.40
2018-06-11T09:42:34.175Z,15.57
2018-06-11T09:45:48.034Z,17.70
2018-06-11T09:49:01.371Z,17.67
2018-06-11T09:52:21.084Z,16.20
2018-06-11T09:58:50.114Z,17.03
2018-06-11T10:08:52.015Z,15.70
2018-06-11T10:12:18.336Z,17.57
2018-06-11T10:19:40.634Z,21.30
2018-06-11T10:23:15.946Z,18.13
2018-06-11T10:35:27.336Z,20.20
2018-06-11T10:38:50.946Z,18.53
2018-06-11T10:42:35.645Z,24.43
2018-06-11T10:46:06.593Z,18.13
2018-06-11T10:49:37.131Z,16.60
2018-06-11T11:39:37.486Z,24.87
2018-06-11T11:42:44.316Z,26.00
2018-06-11T11:52:45.617Z,27.27
2018-06-11T12:13:59.539Z,28.93
2018-06-11T12:29:08.386Z,30.63
2018-06-11T13:04:08.470Z,21.93
2018-06-11T13:07:13.254Z,31.23
2018-06-11T13:10:18.074Z,25.53
2018-06-11T13:13:23.312Z,21.47
2018-06-11T13:16:29.421Z,25.80
2018-06-11T13:19:33.896Z,26.63
2018-06-11T13:22:40.582Z,22.53
2018-06-11T13:25:47.655Z,22.23
2018-06-11T13:28:53.333Z,22.70
2018-06-11T13:32:00.368Z,21.67
2018-06-11T13:35:05.800Z,25.00
2018-06-11T13:38:10.630Z,21.93
2018-06-11T13:41:15.223Z,23.47
2018-06-11T13:44:28.540Z,21.07
2018-06-11T13:47:36.502Z,25.80
2018-06-11T13:50:44.713Z,27.63
2018-06-11T13:53:52.599Z,28.40
2018-06-11T13:57:00.949Z,22.93
2018-06-11T14:00:05.522Z,19.77
2018-06-11T14:03:11.999Z,20.33
2018-06-11T14:06:16.555Z,23.67
2018-06-11T14:09:24.304Z,21.33
2018-06-11T14:12:32.771Z,26.73
2018-06-11T14:15:39.024Z,23.87
2018-06-11T14:18:44.930Z,19.97
2018-06-11T14:21:53.034Z,23.43
2018-06-11T14:36:50.982Z,20.93
2018-06-11T14:43:17.577Z,24.27
2018-06-11T14:46:36.007Z,25.77
2018-06-11T14:49:43.716Z,24.07
2018-06-11T15:01:38.557Z,24.90
2018-06-11T15:04:43.447Z,28.87
2018-06-11T15:07:50.502Z,23.73
2018-06-11T15:10:57.234Z,25.00
2018-06-11T15:14:04.948Z,26.17
2018-06-11T15:17:12.187Z,29.03
2018-06-11T15:20:17.066Z,24.37
2018-06-11T15:23:21.988Z,25.63
2018-06-11T15:26:26.882Z,24.10
2018-06-11T15:29:43.612Z,23.50
2018-06-11T15:32:57.971Z,24.33
2018-06-11T15:36:12.335Z,23.30
2018-06-11T15:39:28.125Z,24.87
2018-06-11T15:42:35.787Z,21.63
2018-06-11T15:45:46.013Z,26.00
2018-06-11T15:48:50.917Z,22.07
2018-06-11T15:51:56.281Z,24.13
2018-06-11T15:55:01.056Z,23.97
2018-06-11T15:58:06.185Z,22.23
2018-06-11T16:01:11.030Z,22.67
2018-06-11T16:04:19.562Z,19.50
2018-06-11T16:07:26.646Z,21.33
2018-06-11T16:10:32.191Z,24.03
2018-06-11T16:17:08.868Z,22.13
2018-06-11T16:20:16.052Z,20.37
2018-06-11T16:23:31.380Z,30.20
2018-06-11T16:30:38.912Z,26.27
2018-06-11T16:34:05.369Z,22.43
2018-06-11T16:37:26.986Z,25.13
2018-06-11T16:41:00.903Z,24.03
2018-06-11T16:44:07.295Z,25.13
2018-06-11T16:47:24.771Z,25.37
2018-06-11T16:50:36.530Z,22.90
2018-06-11T16:53:42.939Z,23.80
2018-06-11T16:56:49.371Z,24.33
2018-06-11T16:59:56.144Z,21.37
2018-06-11T17:03:01.589Z,24.80
2018-06-11T17:06:15.124Z,23.63
2018-06-11T17:09:22.455Z,22.57
2018-06-11T17:12:32.665Z,23.07
2018-06-11T17:15:39.809Z,23.77
2018-06-11T17:18:44.791Z,23.40
2018-06-11T17:21:49.531Z,24.07
2018-06-11T17:24:54.346Z,24.40
2018-06-11T17:27:59.136Z,26.30
2018-06-11T17:31:04.740Z,24.53
2018-06-11T17:34:08.969Z,27.17
2018-06-11T17:37:15.741Z,20.90
2018-06-11T17:40:21.649Z,24.37
2018-06-11T17:43:29.161Z,25.00
2018-06-11T17:46:47.968Z,25.00
2018-06-11T17:49:52.458Z,25.70
2018-06-11T17:52:58.965Z,24.87
2018-06-11T17:56:05.513Z,26.73
2018-06-11T17:59:10.249Z,27.60
2018-06-11T18:02:20.098Z,25.03
2018-06-11T18:05:24.832Z,24.90
2018-06-11T18:08:29.992Z,26.77
2018-06-11T18:11:36.400Z,27.50
2018-06-11T18:14:44.161Z,24.67
2018-06-11T18:17:50.253Z,25.37
2018-06-11T18:20:55.949Z,25.47
2018-06-11T18:24:02.523Z,25.57
2018-06-11T18:27:12.180Z,24.17
2018-06-11T18:30:18.163Z,27.70
2018-06-11T18:33:23.965Z,24.53
2018-06-11T18:36:31.634Z,27.63
2018-06-11T18:39:37.776Z,28.73
2018-06-11T18:42:44.920Z,26.03
2018-06-11T18:45:49.812Z,32.50
2018-06-11T18:48:54.552Z,30.67
2018-06-11T18:52:03.315Z,30.33
2018-06-11T18:55:14.690Z,28.90
2018-06-11T18:58:23.011Z,29.03
2018-06-11T19:01:30.197Z,29.30
2018-06-11T19:04:36.456Z,26.57
2018-06-11T19:07:40.954Z,24.87
2018-06-11T19:10:48.214Z,28.47
2018-06-11T19:13:56.862Z,23.93
2018-06-11T19:17:06.046Z,27.47
2018-06-11T19:20:11.062Z,27.13
2018-06-11T19:23:15.482Z,27.83
2018-06-11T19:26:24.825Z,25.17
2018-06-11T19:29:30.223Z,22.47
2018-06-11T19:33:01.646Z,24.37
2018-06-11T19:36:14.294Z,25.77
2018-06-11T19:39:20.953Z,19.47
2018-06-11T19:42:28.213Z,16.60
2018-06-11T19:45:34.607Z,16.53
2018-06-11T19:52:31.771Z,15.73
2018-06-11T19:55:36.765Z,13.93
2018-06-11T19:58:41.911Z,14.07
2018-06-11T20:01:48.057Z,12.30
2018-06-11T20:04:54.500Z,16.80
2018-06-11T20:08:00.139Z,18.70
2018-06-11T20:11:12.570Z,22.23
2018-06-11T20:14:44.677Z,14.43
2018-06-11T20:17:49.659Z,14.10
2018-06-11T20:20:57.494Z,11.30
2018-06-11T20:24:06.081Z,18.90
2018-06-11T20:27:15.171Z,12.67
2018-06-11T20:30:21.126Z,18.67
2018-06-11T20:33:25.585Z,14.07
2018-06-11T20:36:30.213Z,11.53
2018-06-11T20:39:35.388Z,14.10
2018-06-11T20:42:41.563Z,19.67
2018-06-11T20:45:45.976Z,14.20
2018-06-11T20:48:52.083Z,10.77
2018-06-11T20:51:59.214Z,11.87
2018-06-11T20:55:04.975Z,11.47
2018-06-11T20:58:12.520Z,11.90
2018-06-11T21:01:19.359Z,12.13
2018-06-11T21:04:24.336Z,10.93
2018-06-11T21:07:28.746Z,12.17
2018-06-11T21:10:34.782Z,10.50
2018-06-11T21:13:41.783Z,13.80
2018-06-11T21:16:50.229Z,16.37
2018-06-11T21:19:55.398Z,15.90
2018-06-11T21:23:25.379Z,11.87
2018-06-11T21:26:31.046Z,16.70
2018-06-11T21:29:39.262Z,17.57
2018-06-11T21:32:46.723Z,13.43
2018-06-11T21:35:55.008Z,12.77
2018-06-11T21:39:01.546Z,12.43
2018-06-11T21:42:08.734Z,17.07
2018-06-11T21:45:14.567Z,13.13
2018-06-11T21:48:21.635Z,10.90
2018-06-11T21:51:28.546Z,14.90
2018-06-11T21:54:34.474Z,12.37
2018-06-11T21:57:40.108Z,14.00
2018-06-11T22:00:45.451Z,11.90
2018-06-11T22:03:50.493Z,11.70
2018-06-11T22:06:55.652Z,14.10
2018-06-11T22:10:05.729Z,13.43
2018-06-11T22:13:10.537Z,11.50
2018-06-11T22:16:21.440Z,12.20
2018-06-11T22:19:30.403Z,14.60
2018-06-11T22:22:35.991Z,14.30
2018-06-11T22:25:40.575Z,14.97
2018-06-11T22:28:45.704Z,13.77
2018-06-11T22:31:52.522Z,14.60
2018-06-11T22:35:01.116Z,12.07
2018-06-11T22:38:11.937Z,12.97
2018-06-11T22:41:17.782Z,12.43
2018-06-11T22:44:24.902Z,13.80
2018-06-11T22:47:31.874Z,13.37
2018-06-11T22:50:38.187Z,14.50
